Time;durP1;ratioP1;P1;durP2;ratioP2;P2;SDS_P1;SDS_P2;PMS_P1;PMS_P2;Temp;Humidity;BMP_temperature;BMP_pressure;BME280_temperature;BME280_humidity;BME280_pressure;Samples;Min_cycle;Max_cycle;Signal;HPM_P1;HPM_P2
2021/08/23 00:01:56;;;;;;;14.07;8.25;;;24.90;99.90;;;;;;5010747;28;20105;-71
2021/08/23 00:04:22;;;;;;;9.25;7.18;;;24.90;99.90;;;;;;5009388;28;20030;-71
2021/08/23 00:06:48;;;;;;;9.98;7.68;;;25.10;99.90;;;;;;5010497;28;20026;-70
2021/08/23 00:09:13;;;;;;;8.60;7.80;;;25.10;99.90;;;;;;5009096;28;20516;-71
2021/08/23 00:11:39;;;;;;;9.05;7.90;;;25.10;99.90;;;;;;5010748;28;20373;-71
2021/08/23 00:14:05;;;;;;;9.32;8.30;;;25.20;99.90;;;;;;5010370;28;20125;-70
2021/08/23 00:16:31;;;;;;;9.52;7.28;;;25.20;99.90;;;;;;5008886;28;20561;-71
2021/08/23 00:18:56;;;;;;;8.70;7.90;;;25.20;99.90;;;;;;5009925;28;20428;-69
2021/08/23 00:21:24;;;;;;;8.57;7.55;;;25.30;99.90;;;;;;5014400;28;20034;-70
2021/08/23 00:24:05;;;;;;;8.30;7.50;;;25.20;99.90;;;;;;5014125;28;20018;-70
2021/08/23 00:26:31;;;;;;;11.02;7.90;;;25.10;99.90;;;;;;5014464;28;20112;-71
2021/08/23 00:28:57;;;;;;;8.60;7.80;;;25.10;99.90;;;;;;5012922;28;20096;-71
2021/08/23 00:31:23;;;;;;;9.40;7.82;;;25.10;99.90;;;;;;5014441;28;20029;-71
2021/08/23 00:33:48;;;;;;;11.15;7.78;;;25.00;99.90;;;;;;5014208;28;20076;-71
2021/08/23 00:36:14;;;;;;;8.00;6.65;;;25.10;99.90;;;;;;5014037;28;20026;-71
2021/08/23 00:38:40;;;;;;;8.82;7.88;;;25.10;99.90;;;;;;5012940;28;20033;-71
2021/08/23 00:41:06;;;;;;;12.68;7.45;;;25.10;99.90;;;;;;5012897;28;20029;-72
2021/08/23 00:43:32;;;;;;;12.38;7.40;;;25.30;99.90;;;;;;5013410;28;20034;-71
2021/08/23 00:46:03;;;;;;;8.88;7.75;;;25.40;99.90;;;;;;5014017;28;20030;-71
2021/08/23 00:48:30;;;;;;;10.52;7.07;;;25.40;99.90;;;;;;5013829;28;20057;-71
2021/08/23 00:50:56;;;;;;;8.48;7.60;;;25.40;99.90;;;;;;5014420;28;20129;-71
2021/08/23 00:53:22;;;;;;;7.93;7.13;;;25.30;99.90;;;;;;5012321;28;20079;-71
2021/08/23 00:55:48;;;;;;;17.85;8.35;;;25.30;99.90;;;;;;5013655;28;20037;-72
2021/08/23 00:58:17;;;;;;;9.73;7.00;;;25.30;99.90;;;;;;5012099;28;20529;-71
2021/08/23 01:00:50;;;;;;;11.10;7.45;;;25.20;99.90;;;;;;5012111;28;20070;-71
2021/08/23 01:03:23;;;;;;;7.72;7.00;;;25.30;99.90;;;;;;5012330;28;20022;-70
2021/08/23 01:05:49;;;;;;;11.73;7.80;;;25.30;99.90;;;;;;5013587;28;20030;-70
2021/08/23 01:08:32;;;;;;;7.70;6.88;;;25.40;99.90;;;;;;5013346;28;20041;-70
2021/08/23 01:11:02;;;;;;;9.32;7.40;;;25.50;99.90;;;;;;5012174;28;20041;-70
2021/08/23 01:13:29;;;;;;;9.75;8.30;;;25.30;99.90;;;;;;5012033;28;20026;-70
2021/08/23 01:15:55;;;;;;;8.27;7.47;;;25.30;99.90;;;;;;5013418;28;20387;-70
2021/08/23 01:18:22;;;;;;;10.20;7.40;;;25.20;99.90;;;;;;5011969;28;20026;-70
2021/08/23 01:20:50;;;;;;;10.18;7.60;;;25.20;99.90;;;;;;5013285;28;20081;-70
2021/08/23 01:23:17;;;;;;;10.13;7.45;;;25.10;99.90;;;;;;5012991;28;20022;-69
2021/08/23 01:25:47;;;;;;;9.70;7.47;;;25.10;99.90;;;;;;5012031;28;20041;-70
2021/08/23 01:28:37;;;;;;;7.18;6.50;;;25.30;99.90;;;;;;5013538;28;20073;-70
2021/08/23 01:31:23;;;;;;;8.50;6.93;;;25.30;99.90;;;;;;5012874;28;20463;-69
2021/08/23 01:33:50;;;;;;;7.35;6.57;;;25.20;99.90;;;;;;5013368;28;20116;-69
2021/08/23 01:36:16;;;;;;;9.18;7.47;;;25.30;99.90;;;;;;5013064;28;20026;-71
2021/08/23 01:38:42;;;;;;;8.57;6.78;;;25.30;99.90;;;;;;5013249;28;20066;-70
2021/08/23 01:41:09;;;;;;;7.40;6.57;;;25.30;99.90;;;;;;5011800;28;20018;-70
2021/08/23 01:43:36;;;;;;;8.40;7.60;;;25.20;99.90;;;;;;5012868;28;20108;-70
2021/08/23 01:46:03;;;;;;;7.82;7.13;;;25.20;99.90;;;;;;5011680;28;20065;-69
2021/08/23 01:48:29;;;;;;;7.57;6.88;;;25.00;99.90;;;;;;5011608;28;20026;-70
2021/08/23 01:50:55;;;;;;;9.07;7.32;;;25.10;99.90;;;;;;5011636;28;20036;-70
2021/08/23 01:53:22;;;;;;;7.57;6.10;;;25.20;99.90;;;;;;5013316;28;20041;-70
2021/08/23 01:55:47;;;;;;;6.80;6.20;;;25.30;99.90;;;;;;5012051;28;20109;-70
2021/08/23 01:58:14;;;;;;;8.10;7.13;;;25.10;99.90;;;;;;5011137;28;20121;-70
2021/08/23 02:00:40;;;;;;;7.45;6.75;;;25.00;99.90;;;;;;5012806;28;20049;-71
2021/08/23 02:03:06;;;;;;;7.63;6.93;;;25.00;99.90;;;;;;5012522;28;20064;-70
2021/08/23 02:05:32;;;;;;;6.95;6.35;;;24.90;99.90;;;;;;5012698;28;20408;-71
2021/08/23 02:07:58;;;;;;;8.15;7.35;;;24.90;99.90;;;;;;5012489;28;20097;-70
2021/08/23 02:10:24;;;;;;;14.32;7.57;;;24.80;99.90;;;;;;5012802;28;20025;-70
2021/08/23 02:12:50;;;;;;;7.75;6.97;;;24.90;99.90;;;;;;5012559;28;20042;-71
2021/08/23 02:15:16;;;;;;;11.07;7.07;;;24.90;99.90;;;;;;5012892;28;20459;-69
2021/08/23 02:17:42;;;;;;;9.85;7.45;;;24.90;99.90;;;;;;5012324;28;20484;-70
2021/08/23 02:20:10;;;;;;;19.33;7.45;;;24.90;99.90;;;;;;5012178;28;20451;-70
2021/08/23 02:22:36;;;;;;;9.35;7.57;;;24.90;99.90;;;;;;5012524;28;20025;-70
2021/08/23 02:25:05;;;;;;;10.75;8.00;;;25.00;99.90;;;;;;5012163;28;20053;-70
2021/08/23 02:27:32;;;;;;;8.93;8.02;;;25.00;99.90;;;;;;5010619;28;20069;-70
2021/08/23 02:29:57;;;;;;;7.93;7.18;;;25.00;99.90;;;;;;5012084;28;20022;-70
2021/08/23 02:32:23;;;;;;;8.52;7.35;;;25.00;99.90;;;;;;5011246;28;20538;-71
2021/08/23 02:34:49;;;;;;;8.60;6.97;;;25.00;99.90;;;;;;5012107;28;20054;-70
2021/08/23 02:37:15;;;;;;;9.93;6.85;;;25.00;99.90;;;;;;5012119;28;20415;-70
2021/08/23 02:39:40;;;;;;;8.85;6.57;;;25.00;99.90;;;;;;5011775;28;20403;-70
2021/08/23 02:42:06;;;;;;;7.80;6.30;;;25.00;99.90;;;;;;5010935;28;20048;-69
2021/08/23 02:44:32;;;;;;;9.35;6.80;;;25.00;99.90;;;;;;5010676;28;20026;-70
2021/08/23 02:46:58;;;;;;;6.70;6.00;;;25.00;99.90;;;;;;5010475;28;20030;-70
2021/08/23 02:49:24;;;;;;;7.13;6.05;;;25.00;99.90;;;;;;5011732;28;20048;-70
2021/08/23 02:51:50;;;;;;;8.02;6.35;;;25.10;99.90;;;;;;5012619;28;20492;-70
2021/08/23 02:54:16;;;;;;;6.95;6.25;;;25.10;99.90;;;;;;5014194;28;20056;-70
2021/08/23 02:56:41;;;;;;;7.20;5.57;;;25.00;99.90;;;;;;5019935;28;20456;-70
2021/08/23 02:59:07;;;;;;;7.32;6.53;;;25.10;99.90;;;;;;5022393;28;20064;-70
2021/08/23 03:01:33;;;;;;;9.20;6.18;;;25.10;99.90;;;;;;5025977;28;20022;-71
2021/08/23 03:03:59;;;;;;;7.20;6.30;;;25.10;99.90;;;;;;5019537;28;20044;-71
2021/08/23 03:06:25;;;;;;;7.03;5.68;;;25.10;99.90;;;;;;5014964;28;20461;-71
2021/08/23 03:08:51;;;;;;;6.78;5.78;;;25.10;99.90;;;;;;5014792;28;20084;-70
2021/08/23 03:11:16;;;;;;;5.75;5.25;;;25.20;99.90;;;;;;5013726;28;20087;-70
2021/08/23 03:13:43;;;;;;;7.38;6.18;;;25.20;99.90;;;;;;5011716;28;20447;-70
2021/08/23 03:16:09;;;;;;;8.02;6.15;;;25.20;99.90;;;;;;5012032;28;20448;-70
2021/08/23 03:18:36;;;;;;;8.75;6.00;;;25.30;99.90;;;;;;5012392;28;20476;-71
2021/08/23 03:21:02;;;;;;;7.93;5.55;;;25.30;99.90;;;;;;5013228;28;20105;-71
2021/08/23 03:23:29;;;;;;;7.03;5.93;;;25.40;99.90;;;;;;5010875;28;20033;-70
2021/08/23 03:25:55;;;;;;;6.43;5.85;;;25.50;99.90;;;;;;5010033;28;20030;-71
2021/08/23 03:28:22;;;;;;;7.82;5.63;;;25.40;99.90;;;;;;5011014;28;20110;-70
2021/08/23 03:30:47;;;;;;;8.90;6.07;;;25.50;99.90;;;;;;5011225;28;20025;-70
2021/08/23 03:33:14;;;;;;;7.25;6.53;;;25.40;99.90;;;;;;5009665;28;20124;-70
2021/08/23 03:35:41;;;;;;;10.07;6.57;;;25.40;99.90;;;;;;5009572;28;20030;-70
2021/08/23 03:38:07;;;;;;;8.43;6.60;;;25.40;99.90;;;;;;5010808;28;20679;-70
2021/08/23 03:40:33;;;;;;;7.95;7.22;;;25.40;99.90;;;;;;5010996;28;20500;-70
2021/08/23 03:42:59;;;;;;;9.00;6.70;;;25.30;99.90;;;;;;5010807;28;20033;-70
2021/08/23 03:45:25;;;;;;;10.48;6.10;;;25.40;99.90;;;;;;5009270;28;20026;-71
2021/08/23 03:47:51;;;;;;;10.70;6.40;;;25.10;99.90;;;;;;5008953;28;20568;-70
2021/08/23 03:50:16;;;;;;;8.82;5.25;;;25.00;99.90;;;;;;5010674;28;20391;-71
2021/08/23 03:52:42;;;;;;;6.93;6.30;;;24.80;99.90;;;;;;5009061;28;20022;-70
2021/08/23 03:55:09;;;;;;;7.78;4.70;;;24.80;99.90;;;;;;5010321;28;20037;-71
2021/08/23 03:57:36;;;;;;;5.18;4.63;;;24.70;99.90;;;;;;5008907;28;20081;-70
2021/08/23 04:00:04;;;;;;;5.47;4.22;;;24.60;99.90;;;;;;5009261;28;20022;-70
2021/08/23 04:02:30;;;;;;;6.40;3.53;;;24.60;99.90;;;;;;5010408;28;20018;-71
2021/08/23 04:04:56;;;;;;;8.70;3.40;;;24.60;99.90;;;;;;5009912;28;20087;-71
2021/08/23 04:07:22;;;;;;;3.50;3.17;;;24.60;99.90;;;;;;5010352;28;20026;-72
2021/08/23 04:09:47;;;;;;;4.90;2.30;;;24.60;99.90;;;;;;5010295;28;20036;-71
2021/08/23 04:12:13;;;;;;;3.00;2.55;;;24.60;99.90;;;;;;5009011;28;20033;-71
2021/08/23 04:14:39;;;;;;;5.90;2.97;;;24.60;99.90;;;;;;5010357;28;20484;-71
2021/08/23 04:17:05;;;;;;;3.28;2.53;;;24.70;99.90;;;;;;5010392;28;20054;-71
2021/08/23 04:19:31;;;;;;;3.38;2.90;;;24.70;99.90;;;;;;5010187;28;20506;-72
2021/08/23 04:21:57;;;;;;;4.90;3.45;;;24.80;99.90;;;;;;5010460;28;20042;-71
2021/08/23 04:24:23;;;;;;;3.90;2.58;;;24.80;99.90;;;;;;5010106;28;20402;-71
2021/08/23 04:26:49;;;;;;;3.85;2.00;;;24.90;99.90;;;;;;5010163;28;20056;-70
2021/08/23 04:29:15;;;;;;;1.95;1.73;;;24.90;99.90;;;;;;5008787;28;20445;-70
2021/08/23 04:31:42;;;;;;;4.05;2.17;;;24.80;99.90;;;;;;5010796;28;20049;-70
2021/08/23 04:34:08;;;;;;;2.63;2.20;;;24.70;99.90;;;;;;5010318;28;20030;-70
2021/08/23 04:36:34;;;;;;;10.70;2.25;;;24.80;99.90;;;;;;5010232;28;20084;-70
2021/08/23 04:39:00;;;;;;;2.22;1.38;;;24.60;99.90;;;;;;5010401;28;20018;-71
2021/08/23 04:41:26;;;;;;;1.80;1.58;;;24.60;99.90;;;;;;5010201;28;20105;-71
2021/08/23 04:43:52;;;;;;;2.58;2.00;;;24.60;99.90;;;;;;5008810;28;20383;-70
2021/08/23 04:46:18;;;;;;;3.00;1.40;;;24.60;99.90;;;;;;5008953;28;20440;-70
2021/08/23 04:48:44;;;;;;;4.28;1.17;;;24.60;99.90;;;;;;5010156;28;20281;-70
2021/08/23 04:51:10;;;;;;;2.85;1.35;;;24.60;99.90;;;;;;5010006;28;20558;-71
2021/08/23 04:53:36;;;;;;;9.40;1.48;;;24.60;99.90;;;;;;5010214;28;20034;-71
2021/08/23 04:56:08;;;;;;;2.83;1.90;;;24.40;99.90;;;;;;5008604;28;20030;-71
2021/08/23 04:58:33;;;;;;;;;;;24.40;99.90;;;;;;5009517;28;20022;-71
2021/08/23 05:00:59;;;;;;;3.60;1.45;;;24.30;99.90;;;;;;5010567;28;19960;-72
2021/08/23 05:03:25;;;;;;;4.00;1.35;;;24.30;99.90;;;;;;5010420;28;20030;-72
2021/08/23 05:05:50;;;;;;;3.00;1.50;;;24.20;99.90;;;;;;5011119;28;20029;-72
2021/08/23 05:08:20;;;;;;;1.73;1.42;;;24.40;99.90;;;;;;5012794;28;20022;-70
2021/08/23 05:10:46;;;;;;;1.30;1.20;;;24.40;99.90;;;;;;5013790;28;20053;-71
2021/08/23 05:13:12;;;;;;;4.25;1.52;;;24.20;99.90;;;;;;5012413;28;20032;-71
2021/08/23 05:15:38;;;;;;;7.35;2.58;;;24.20;99.90;;;;;;5012235;28;20030;-70
2021/08/23 05:18:04;;;;;;;4.60;2.67;;;24.30;99.90;;;;;;5013458;28;20038;-71
2021/08/23 05:20:29;;;;;;;3.75;2.50;;;24.40;99.90;;;;;;5012182;28;20022;-71
2021/08/23 05:22:55;;;;;;;3.72;2.72;;;24.50;99.90;;;;;;5011606;28;20022;-71
2021/08/23 05:25:21;;;;;;;3.30;2.35;;;24.50;99.90;;;;;;5013168;28;20499;-70
2021/08/23 05:27:47;;;;;;;3.05;2.75;;;24.60;99.90;;;;;;5011847;28;20088;-70
2021/08/23 05:30:13;;;;;;;4.80;3.38;;;24.40;99.90;;;;;;5013294;28;20033;-71
2021/08/23 05:32:39;;;;;;;6.43;2.55;;;24.50;99.90;;;;;;5011823;28;20040;-71
2021/08/23 05:35:06;;;;;;;4.30;2.70;;;24.40;99.90;;;;;;5013010;28;20034;-71
2021/08/23 05:37:32;;;;;;;2.63;2.42;;;24.50;99.90;;;;;;5013177;28;20105;-71
2021/08/23 05:39:58;;;;;;;2.38;2.17;;;24.50;99.90;;;;;;5012909;28;20101;-71
2021/08/23 05:42:23;;;;;;;10.65;3.70;;;24.40;99.90;;;;;;5013374;28;20037;-72
2021/08/23 05:44:53;;;;;;;2.92;2.70;;;24.40;99.90;;;;;;5012308;28;20448;-71
2021/08/23 05:47:20;;;;;;;2.97;2.50;;;24.30;99.90;;;;;;5012951;28;20022;-72
2021/08/23 05:49:45;;;;;;;4.97;2.70;;;24.40;99.90;;;;;;5012572;28;20030;-71
2021/08/23 05:52:12;;;;;;;7.55;2.30;;;24.40;99.90;;;;;;5011767;28;20087;-77
2021/08/23 05:54:39;;;;;;;5.43;2.78;;;24.40;99.90;;;;;;5013173;28;20128;-74
2021/08/23 05:57:06;;;;;;;4.05;2.55;;;24.40;99.90;;;;;;5012842;28;20030;-75
2021/08/23 05:59:32;;;;;;;8.85;2.50;;;24.20;99.90;;;;;;5011446;28;20084;-74
2021/08/23 06:01:57;;;;;;;5.03;2.92;;;24.30;99.90;;;;;;5011611;28;20485;-73
2021/08/23 06:04:24;;;;;;;2.53;1.98;;;24.30;99.90;;;;;;5012696;28;20029;-72
2021/08/23 06:06:51;;;;;;;2.13;1.98;;;24.30;99.90;;;;;;5011321;28;20069;-74
2021/08/23 06:09:18;;;;;;;2.15;2.00;;;24.20;99.90;;;;;;5010992;28;20025;-73
2021/08/23 06:11:44;;;;;;;2.92;2.20;;;24.30;99.90;;;;;;5011381;28;20168;-73
2021/08/23 06:14:10;;;;;;;3.70;2.83;;;24.40;99.90;;;;;;5011224;28;20021;-73
2021/08/23 06:16:36;;;;;;;2.72;2.53;;;24.30;99.90;;;;;;5012450;28;20029;-74
2021/08/23 06:19:02;;;;;;;4.05;2.83;;;24.20;99.90;;;;;;5012134;28;20018;-74
2021/08/23 06:21:28;;;;;;;6.55;2.13;;;24.10;99.90;;;;;;5012469;28;20030;-73
2021/08/23 06:23:54;;;;;;;5.45;2.47;;;24.00;99.90;;;;;;5012206;28;20475;-73
2021/08/23 06:26:20;;;;;;;4.60;2.08;;;23.90;99.90;;;;;;5012162;28;20032;-72
2021/08/23 06:28:45;;;;;;;3.67;2.20;;;23.90;99.90;;;;;;5012261;28;20026;-73
2021/08/23 06:31:11;;;;;;;3.17;1.92;;;23.80;99.90;;;;;;5012186;28;20054;-72
2021/08/23 06:33:37;;;;;;;4.93;1.55;;;23.60;99.90;;;;;;5012341;28;20088;-72
2021/08/23 06:36:03;;;;;;;1.77;1.50;;;23.60;99.90;;;;;;5010732;28;20451;-74
2021/08/23 06:38:29;;;;;;;2.40;1.90;;;23.70;99.90;;;;;;5010350;28;20025;-72
2021/08/23 06:40:55;;;;;;;6.50;1.40;;;23.70;99.90;;;;;;5010721;28;20030;-73
2021/08/23 06:43:20;;;;;;;2.85;1.80;;;23.70;99.90;;;;;;5010329;28;20476;-72
2021/08/23 06:45:46;;;;;;;2.35;1.60;;;23.50;99.90;;;;;;5011892;28;20033;-72
2021/08/23 06:48:12;;;;;;;1.92;1.70;;;23.50;99.90;;;;;;5011956;28;20030;-73
2021/08/23 06:50:38;;;;;;;1.50;1.20;;;23.40;99.90;;;;;;5011984;28;20396;-73
2021/08/23 06:53:04;;;;;;;2.30;2.10;;;23.30;99.90;;;;;;5011764;28;20151;-73
2021/08/23 06:55:31;;;;;;;2.13;1.55;;;23.40;99.90;;;;;;5010242;28;20030;-73
2021/08/23 06:57:57;;;;;;;4.30;1.90;;;23.40;99.90;;;;;;5011638;28;20018;-74
2021/08/23 07:00:22;;;;;;;3.30;1.80;;;23.40;99.90;;;;;;5011850;28;20091;-74
2021/08/23 07:02:48;;;;;;;1.40;1.20;;;23.30;99.90;;;;;;5011619;28;20472;-73
2021/08/23 07:05:14;;;;;;;4.13;1.60;;;23.30;99.90;;;;;;5010167;28;20022;-73
2021/08/23 07:07:40;;;;;;;2.75;1.33;;;23.40;99.90;;;;;;5012242;28;20495;-73
2021/08/23 07:10:11;;;;;;;6.47;1.92;;;23.20;99.90;;;;;;5013261;28;20281;-73
2021/08/23 07:12:37;;;;;;;4.35;1.63;;;23.20;99.90;;;;;;5012368;28;20100;-73
2021/08/23 07:15:03;;;;;;;1.70;1.42;;;23.40;99.90;;;;;;5013770;28;20036;-74
2021/08/23 07:17:29;;;;;;;5.25;1.73;;;23.30;99.90;;;;;;5012224;28;20022;-73
2021/08/23 07:19:55;;;;;;;6.97;1.98;;;23.30;99.90;;;;;;5012199;28;20018;-73
2021/08/23 07:22:21;;;;;;;2.78;1.88;;;23.20;99.90;;;;;;5010086;28;20504;-70
2021/08/23 07:24:47;;;;;;;4.13;1.60;;;23.00;99.90;;;;;;5012007;28;20025;-73
2021/08/23 07:27:13;;;;;;;3.58;1.85;;;23.00;99.90;;;;;;5010210;28;20067;-72
2021/08/23 07:29:40;;;;;;;2.28;1.83;;;23.10;99.90;;;;;;5010290;28;20025;-74
2021/08/23 07:32:06;;;;;;;3.17;1.45;;;23.00;99.90;;;;;;5012497;28;20093;-74
2021/08/23 07:34:32;;;;;;;1.98;1.60;;;23.10;99.90;;;;;;5011146;28;20049;-74
2021/08/23 07:36:57;;;;;;;4.05;2.53;;;23.10;99.90;;;;;;5010992;28;20445;-75
2021/08/23 07:39:23;;;;;;;6.00;1.52;;;23.20;99.90;;;;;;5011333;28;20022;-72
2021/08/23 07:41:50;;;;;;;1.67;1.25;;;23.30;99.90;;;;;;5018159;28;20033;-73
2021/08/23 07:44:16;;;;;;;3.47;1.27;;;23.40;99.90;;;;;;5017049;28;20076;-73
2021/08/23 07:46:42;;;;;;;14.70;2.30;;;23.30;99.90;;;;;;5015748;28;20088;-71
2021/08/23 07:49:07;;;;;;;2.30;1.15;;;23.40;99.90;;;;;;5014325;28;20021;-72
2021/08/23 07:51:33;;;;;;;3.80;1.73;;;23.50;99.90;;;;;;5012276;28;20065;-75
2021/08/23 07:53:59;;;;;;;3.63;1.30;;;23.40;99.90;;;;;;5010211;28;20037;-75
2021/08/23 07:56:26;;;;;;;2.53;1.02;;;23.50;99.90;;;;;;5009910;28;20254;-73
2021/08/23 07:58:51;;;;;;;1.27;0.73;;;23.20;99.90;;;;;;5012227;28;20089;-73
2021/08/23 08:01:17;;;;;;;2.03;1.10;;;23.00;99.90;;;;;;5011412;28;20163;-74
2021/08/23 08:03:43;;;;;;;4.15;1.00;;;23.00;99.90;;;;;;5011098;28;20444;-77
2021/08/23 08:06:09;;;;;;;1.13;1.02;;;23.10;99.90;;;;;;5009505;28;20030;-72
2021/08/23 08:08:35;;;;;;;3.53;1.80;;;23.00;99.90;;;;;;5010307;28;20101;-71
2021/08/23 08:11:01;;;;;;;9.65;1.63;;;22.70;99.90;;;;;;5010779;28;20045;-73
2021/08/23 08:13:27;;;;;;;5.72;1.92;;;21.30;99.90;;;;;;5010658;28;20022;-73
2021/08/23 08:15:52;;;;;;;3.40;1.05;;;20.30;99.90;;;;;;5009087;28;20034;-72
2021/08/23 08:18:18;;;;;;;3.78;1.08;;;19.90;99.90;;;;;;5009290;28;20026;-72
2021/08/23 08:20:45;;;;;;;3.05;0.93;;;19.90;99.90;;;;;;5009648;28;20076;-74
2021/08/23 08:23:11;;;;;;;3.83;1.42;;;20.00;99.90;;;;;;5008854;28;20030;-75
2021/08/23 08:25:37;;;;;;;2.20;1.10;;;20.00;99.90;;;;;;5009196;28;20026;-74
2021/08/23 08:28:03;;;;;;;3.45;1.98;;;19.70;99.90;;;;;;5009174;28;20084;-74
2021/08/23 08:30:29;;;;;;;4.95;1.30;;;19.20;99.90;;;;;;5010729;28;20036;-74
2021/08/23 08:32:55;;;;;;;8.13;1.60;;;18.80;99.90;;;;;;5010798;28;20022;-73
2021/08/23 08:35:22;;;;;;;6.55;1.50;;;18.40;99.90;;;;;;5009281;28;20030;-73
2021/08/23 08:37:48;;;;;;;5.55;1.88;;;17.90;99.90;;;;;;5009131;28;20084;-73
2021/08/23 08:40:14;;;;;;;5.55;2.17;;;17.70;99.90;;;;;;5011004;28;20027;-74
2021/08/23 08:42:40;;;;;;;2.95;2.17;;;17.70;99.90;;;;;;5014425;28;20059;-74
2021/08/23 08:45:07;;;;;;;2.47;2.00;;;17.80;99.90;;;;;;5015967;28;20095;-73
2021/08/23 08:47:34;;;;;;;3.75;2.17;;;17.80;99.90;;;;;;5014598;28;20416;-73
2021/08/23 08:50:01;;;;;;;1.35;1.20;;;18.00;99.90;;;;;;5014917;28;20591;-74
2021/08/23 08:52:28;;;;;;;1.58;1.15;;;18.30;99.90;;;;;;5013439;28;20071;-74
2021/08/23 08:54:54;;;;;;;4.68;1.85;;;18.40;99.90;;;;;;5013270;28;20498;-72
2021/08/23 08:57:20;;;;;;;3.72;1.70;;;18.70;99.90;;;;;;5013020;28;20060;-73
2021/08/23 08:59:46;;;;;;;2.17;1.83;;;18.80;99.90;;;;;;5014332;28;20101;-74
2021/08/23 09:02:12;;;;;;;5.35;2.95;;;18.90;99.90;;;;;;5012928;28;20097;-73
2021/08/23 09:04:39;;;;;;;5.63;1.27;;;18.80;99.90;;;;;;5014065;28;20033;-72
2021/08/23 09:07:07;;;;;;;2.83;1.52;;;19.00;99.90;;;;;;5012951;28;20048;-74
2021/08/23 09:09:33;;;;;;;2.65;1.50;;;19.10;99.90;;;;;;5012905;28;20026;-74
2021/08/23 09:12:07;;;;;;;1.42;1.33;;;19.00;99.90;;;;;;5012581;28;20456;-72
2021/08/23 09:14:36;;;;;;;2.63;1.60;;;18.90;99.90;;;;;;5012776;28;20052;-72
2021/08/23 09:17:09;;;;;;;4.43;1.38;;;19.00;99.90;;;;;;5014125;28;20370;-74
2021/08/23 09:19:37;;;;;;;3.70;1.92;;;18.90;99.90;;;;;;5012248;28;20385;-74
2021/08/23 09:22:08;;;;;;;3.05;1.90;;;19.00;99.90;;;;;;5013934;28;20515;-72
2021/08/23 09:24:36;;;;;;;4.90;1.23;;;19.00;99.90;;;;;;5012444;28;20029;-74
2021/08/23 09:27:06;;;;;;;3.53;1.27;;;18.90;99.90;;;;;;5012527;28;20038;-73
2021/08/23 09:29:56;;;;;;;3.03;1.95;;;18.90;99.90;;;;;;5012366;28;20117;-72
2021/08/23 09:32:27;;;;;;;4.28;1.70;;;18.10;99.90;;;;;;5012081;28;20038;-72
2021/08/23 09:34:53;;;;;;;3.75;2.10;;;17.20;99.90;;;;;;5012153;28;20080;-74
2021/08/23 09:37:23;;;;;;;3.58;1.92;;;17.30;99.90;;;;;;5013862;28;20022;-73
2021/08/23 09:39:49;;;;;;;3.25;2.30;;;17.30;99.90;;;;;;5013922;28;20099;-74
2021/08/23 09:42:20;;;;;;;3.15;1.83;;;17.20;99.90;;;;;;5013569;28;20022;-73
2021/08/23 09:44:46;;;;;;;3.75;1.50;;;17.50;99.90;;;;;;5012088;28;20091;-72
2021/08/23 09:47:12;;;;;;;4.28;1.90;;;17.80;99.90;;;;;;5013358;28;20476;-73
2021/08/23 09:49:47;;;;;;;3.17;1.90;;;17.60;99.90;;;;;;5012181;28;20049;-71
2021/08/23 09:52:21;;;;;;;6.93;2.25;;;17.80;99.90;;;;;;5012037;28;20048;-74
2021/08/23 09:55:09;;;;;;;2.33;1.80;;;17.90;99.90;;;;;;5012514;28;20374;-75
2021/08/23 09:57:38;;;;;;;2.63;1.80;;;18.10;99.90;;;;;;5013211;28;20029;-73
2021/08/23 10:00:07;;;;;;;4.55;1.63;;;18.50;99.90;;;;;;5013553;28;20022;-72
2021/08/23 10:02:34;;;;;;;2.42;2.00;;;18.90;99.90;;;;;;5015148;28;20016;-71
2021/08/23 10:05:01;;;;;;;2.03;1.38;;;19.10;99.90;;;;;;5013493;28;20022;-72
2021/08/23 10:07:29;;;;;;;1.60;1.20;;;19.20;99.90;;;;;;5011771;28;20026;-70
2021/08/23 10:10:01;;;;;;;2.55;1.45;;;19.10;99.90;;;;;;5011564;28;20029;-73
2021/08/23 10:12:28;;;;;;;;;;;19.30;99.90;;;;;;5013305;28;20032;-73
2021/08/23 10:14:53;;;;;;;4.03;1.23;;;19.20;99.90;;;;;;5011302;28;19912;-73
2021/08/23 10:17:21;;;;;;;1.45;1.00;;;19.00;99.90;;;;;;5012655;28;20022;-73
2021/08/23 10:19:49;;;;;;;3.28;1.88;;;18.90;99.90;;;;;;5012508;28;20484;-73
2021/08/23 10:22:15;;;;;;;1.73;1.08;;;18.80;99.90;;;;;;5012541;28;20507;-74
2021/08/23 10:24:42;;;;;;;1.20;1.10;;;18.80;99.90;;;;;;5012758;28;20076;-74
2021/08/23 10:27:08;;;;;;;2.47;1.38;;;19.10;99.90;;;;;;5011455;28;20092;-74
2021/08/23 10:29:39;;;;;;;1.90;1.27;;;19.20;99.90;;;;;;5011082;28;20022;-72
2021/08/23 10:32:10;;;;;;;0.83;0.80;;;19.20;99.90;;;;;;5011021;28;20022;-73
2021/08/23 10:34:38;;;;;;;1.90;1.10;;;19.30;99.90;;;;;;5011352;28;20759;-74
2021/08/23 10:37:19;;;;;;;2.97;1.17;;;19.10;99.90;;;;;;5012510;28;20029;-73
2021/08/23 10:39:44;;;;;;;3.05;1.30;;;19.10;99.90;;;;;;5011787;28;21009;-71
2021/08/23 10:42:12;;;;;;;2.75;1.52;;;19.00;99.90;;;;;;5012187;28;20121;-76
2021/08/23 10:44:39;;;;;;;2.13;1.15;;;19.30;99.90;;;;;;5012536;28;20026;-74
2021/08/23 10:47:05;;;;;;;1.92;0.90;;;19.00;99.90;;;;;;5011211;28;20037;-76
2021/08/23 10:49:39;;;;;;;1.50;1.00;;;19.40;99.90;;;;;;5014027;28;20400;-73
2021/08/23 10:52:05;;;;;;;2.95;1.25;;;19.50;99.90;;;;;;5012975;28;20025;-73
2021/08/23 10:54:39;;;;;;;0.82;0.82;;;19.50;99.90;;;;;;5010852;28;20028;-73
2021/08/23 10:57:07;;;;;;;5.43;1.27;;;19.70;99.90;;;;;;5010784;28;20053;-73
2021/08/23 10:59:51;;;;;;;5.15;1.55;;;19.70;99.90;;;;;;5010905;28;20026;-74
2021/08/23 11:02:30;;;;;;;1.00;0.90;;;19.70;99.90;;;;;;5011240;28;20045;-74
2021/08/23 11:05:10;;;;;;;1.10;0.82;;;20.10;99.90;;;;;;5009930;28;20022;-74
2021/08/23 11:07:37;;;;;;;1.42;0.75;;;19.90;99.90;;;;;;5011586;28;20030;-74
2021/08/23 11:10:06;;;;;;;1.73;0.60;;;20.00;99.90;;;;;;5011714;28;20389;-73
2021/08/23 11:12:47;;;;;;;0.80;0.80;;;19.90;99.90;;;;;;5010159;28;20507;-73
2021/08/23 11:15:20;;;;;;;4.28;1.00;;;20.00;99.90;;;;;;5011284;28;20033;-72
2021/08/23 11:17:56;;;;;;;4.65;1.25;;;19.90;99.90;;;;;;5010957;28;20026;-74
2021/08/23 11:20:30;;;;;;;0.82;0.75;;;20.00;99.90;;;;;;5012611;28;20026;-73
2021/08/23 11:23:05;;;;;;;0.60;0.60;;;20.00;99.90;;;;;;5011595;28;20030;-75
2021/08/23 11:25:41;;;;;;;1.98;0.90;;;20.10;99.90;;;;;;5010981;28;20037;-72
2021/08/23 11:28:13;;;;;;;0.80;0.80;;;19.90;99.90;;;;;;5010873;28;20406;-73
2021/08/23 11:30:40;;;;;;;2.25;2.05;;;19.90;99.90;;;;;;5009952;28;20033;-74
2021/08/23 11:33:07;;;;;;;1.85;0.93;;;20.00;99.90;;;;;;5009717;28;20041;-74
2021/08/23 11:35:33;;;;;;;1.40;1.25;;;20.10;99.90;;;;;;5011035;28;20091;-74
2021/08/23 11:38:17;;;;;;;4.15;1.33;;;20.20;99.90;;;;;;5010704;28;20030;-73
2021/08/23 11:40:45;;;;;;;1.58;1.25;;;20.40;99.90;;;;;;5009577;28;20071;-74
2021/08/23 11:43:12;;;;;;;2.10;1.20;;;20.30;99.90;;;;;;5011195;28;20034;-75
2021/08/23 11:45:44;;;;;;;1.85;1.15;;;20.40;99.90;;;;;;5010004;28;20037;-72
2021/08/23 11:48:09;;;;;;;;;;;20.30;99.90;;;;;;5010041;28;20384;-74
2021/08/23 11:50:36;;;;;;;0.90;0.80;;;20.50;99.90;;;;;;5010463;28;19988;-74
2021/08/23 11:53:07;;;;;;;0.85;0.85;;;20.20;99.90;;;;;;5010592;28;20040;-75
2021/08/23 11:55:42;;;;;;;1.55;1.45;;;20.20;99.90;;;;;;5014163;28;20037;-74
2021/08/23 11:58:08;;;;;;;1.40;0.95;;;20.50;99.90;;;;;;5015986;28;20109;-74
2021/08/23 12:00:36;;;;;;;1.88;1.15;;;20.80;99.90;;;;;;5016190;28;20022;-74
2021/08/23 12:03:05;;;;;;;2.67;1.45;;;20.70;99.90;;;;;;5016924;28;20020;-74
2021/08/23 12:05:48;;;;;;;1.10;1.00;;;20.90;99.90;;;;;;5013995;28;20026;-72
2021/08/23 12:08:28;;;;;;;1.25;1.17;;;20.80;99.90;;;;;;5010918;28;20026;-75
2021/08/23 12:10:58;;;;;;;2.05;1.35;;;20.60;99.90;;;;;;5011836;28;20050;-73
2021/08/23 12:13:36;;;;;;;1.42;1.10;;;20.40;99.90;;;;;;5009936;28;20097;-74
2021/08/23 12:16:14;;;;;;;1.75;1.38;;;20.40;99.90;;;;;;5009532;28;20553;-74
2021/08/23 12:18:47;;;;;;;5.13;1.88;;;20.80;99.90;;;;;;5009687;28;20034;-72
2021/08/23 12:21:20;;;;;;;2.13;1.42;;;20.80;99.90;;;;;;5010826;28;20116;-74
2021/08/23 12:24:02;;;;;;;4.57;1.30;;;20.90;99.90;;;;;;5009035;28;20022;-73
2021/08/23 12:26:28;;;;;;;1.75;1.25;;;21.10;99.90;;;;;;5010873;28;20037;-73
2021/08/23 12:28:58;;;;;;;2.55;1.50;;;21.10;99.90;;;;;;5010128;28;20098;-72
2021/08/23 12:31:24;;;;;;;2.38;1.67;;;21.40;99.90;;;;;;5009317;28;20026;-74
2021/08/23 12:33:50;;;;;;;1.42;1.05;;;21.30;99.90;;;;;;5010529;28;20387;-74
2021/08/23 12:36:16;;;;;;;1.08;0.85;;;21.20;99.90;;;;;;5010467;28;20101;-75
2021/08/23 12:38:44;;;;;;;1.30;1.20;;;21.30;99.90;;;;;;5010195;28;20022;-74
2021/08/23 12:41:11;;;;;;;2.15;1.60;;;21.10;99.90;;;;;;5010503;28;20088;-72
2021/08/23 12:43:38;;;;;;;3.30;1.48;;;21.40;99.90;;;;;;5009105;28;20132;-75
2021/08/23 12:46:04;;;;;;;1.73;1.40;;;21.50;99.90;;;;;;5010539;28;20048;-74
2021/08/23 12:48:33;;;;;;;1.17;1.08;;;21.50;99.90;;;;;;5009108;28;20049;-73
2021/08/23 12:51:00;;;;;;;2.67;1.48;;;21.80;99.90;;;;;;5010701;28;20380;-74